LFKJLFKF

Guest
Details From LFKJ - Napoleon Bonaparte
To LFKF - Figari Sud Corse
Flight Number -
Tags decoded
Created
Modified
Stats Distance 29 nm / 53 km
Max Altitude 0 ft / 0 m
Waypoints 2
Social Downloads 18
Likes 0
Share

Download

Looking for another format? Having issues loading an existing format? Contact us
Advertisement - Login to hide

Notes

Requested: LFKJ LFKF

Route

LFKJ LFKF

ID Type Via Altitude (ft/m) Position (lat/lon) Dist (leg/tot) Name
O LFKJ APT - 0 / 0 41.92289 / 8.79959 - / 0 nm Napoleon Bonaparte
O LFKF APT - 0 / 0 41.50206 / 9.09696 28 / 28 nm Figari Sud Corse

Altitude Profile

Advertisement - Login to hide

LFKJ

Details ICAO LFKJ (AJA)
Name Napoleon Bonaparte
Region France
Timezone Europe/Paris (UTC+1.0)
Stats Elevation 19 ft / 6 m (AMSL)
Location 41.921700° 8.801090°
Runways 1
Magnetic Variation 2.993° E

METAR

LFKJ 271830Z AUTO 00000KT 5000 -RA BR FEW034 BKN048 OVC054 11/10 Q1004 NOSIG

Decode

TAF

TAF AMD LFKJ 271600Z 2716/2815 22004KT 9999 BKN025 BKN040 TEMPO 2716/2718 3000 RA BKN014 FEW030TCU BKN035 BECMG 2719/2721 05005KT BKN025 BECMG 2723/2801 FEW025 BECMG 2810/2812 22007KT

Decode

Departure Runways

ID Width Length Bearing (true/mag) Surface Threshold Overrun Markings Lighting
02 148 ft / 45 m 7,904 ft / 2,409 m 24.84° / 21.85° CONCRETE 0 ft / 0 m 161 ft / 49 m PREC-APP CENTERLINE EDGE THRESHOLD REIL-OMNI
20 148 ft / 45 m 7,904 ft / 2,409 m 204.85° / 201.86° CONCRETE 741 ft / 226 m 230 ft / 70 m PREC-APP CENTERLINE EDGE THRESHOLD REIL-OMNI

LFKF

Details ICAO LFKF (FSC)
Name Figari Sud Corse
Region France
Timezone Europe/Paris (UTC+1.0)
Stats Elevation 86 ft / 26 m (AMSL)
Location 41.502300° 9.096970°
Runways 1
Magnetic Variation 3.035° E

METAR

LFKF 271830Z AUTO 22007KT 9999 FEW012 BKN064 11/10 Q1004 NOSIG

Decode

TAF

TAF LFKF 271400Z 2715/2815 22008KT 9999 BKN015 BKN027 BKN060 TEMPO 2715/2718 RA BKN015 FEW025TCU BKN025 BECMG 2723/2801 05005KT BECMG 2801/2803 FEW015 BKN030 BECMG 2808/2810 05015G25KT BKN030 BECMG 2813/2815 05020G30KT TEMPO 2809/2815 RA FEW030TCU BKN030

Decode

Destination Runways

ID Width Length Bearing (true/mag) Surface Threshold Overrun Markings Lighting
05 148 ft / 45 m 8,144 ft / 2,482 m 47.43° / 44.40° CONCRETE 0 ft / 0 m 0 ft / 0 m APP CENTERLINE EDGE THRESHOLD
23 148 ft / 45 m 8,144 ft / 2,482 m 227.45° / 224.41° CONCRETE 0 ft / 0 m 0 ft / 0 m PREC-APP CENTERLINE EDGE THRESHOLD

Approach Navaids

Runway Type Ident Frequency Range Bearing (true/mag) Slope Elevation
23 DME GR 110.50 MHz 18 nm / 33 km - - 131 ft / 40 m (AMSL)
23 OM OM - - 227.43° / 224.40 ° - 87 ft / 27 m (AMSL)
23 LOC-ILS GR 110.50 MHz 18 nm / 33 km 227.44° / 224.41 ° - 86 ft / 26 m (AMSL)
23 GS GR 110.50 MHz 10 nm / 19 km 227.44° / 224.41 ° 3.50° 86 ft / 26 m (AMSL)

Popular Alternatives